sensor_id;sensor_type;location;lat;lon;timestamp;P1;durP1;ratioP1;P2;durP2;ratioP2
16387;SDS011;8303;53.446;9.988;2023-05-07T04:46:55;87.07;;;81.67;;
16387;SDS011;8303;53.446;9.988;2023-05-07T04:49:25;83.53;;;78.13;;
16387;SDS011;8303;53.446;9.988;2023-05-07T04:51:52;85.33;;;80.17;;
16387;SDS011;8303;53.446;9.988;2023-05-07T04:54:20;85.97;;;80.60;;
16387;SDS011;8303;53.446;9.988;2023-05-07T04:56:47;96.23;;;90.27;;
16387;SDS011;8303;53.446;9.988;2023-05-07T04:59:14;89.67;;;84.13;;
16387;SDS011;8303;53.446;9.988;2023-05-07T05:01:42;93.80;;;87.90;;
16387;SDS011;8303;53.446;9.988;2023-05-07T05:04:11;81.13;;;76.17;;
16387;SDS011;8303;53.446;9.988;2023-05-07T05:06:38;94.47;;;88.80;;
16387;SDS011;8303;53.446;9.988;2023-05-07T05:09:06;90.13;;;84.03;;
16387;SDS011;8303;53.446;9.988;2023-05-07T05:11:34;89.27;;;83.23;;
16387;SDS011;8303;53.446;9.988;2023-05-07T05:14:01;87.20;;;81.90;;
16387;SDS011;8303;53.446;9.988;2023-05-07T05:16:28;92.27;;;86.67;;
16387;SDS011;8303;53.446;9.988;2023-05-07T05:18:55;85.53;;;80.03;;
16387;SDS011;8303;53.446;9.988;2023-05-07T05:21:24;95.83;;;89.93;;
16387;SDS011;8303;53.446;9.988;2023-05-07T05:23:51;94.23;;;88.73;;
16387;SDS011;8303;53.446;9.988;2023-05-07T05:26:19;89.27;;;83.90;;
16387;SDS011;8303;53.446;9.988;2023-05-07T05:28:46;80.10;;;75.10;;
16387;SDS011;8303;53.446;9.988;2023-05-07T05:31:14;81.97;;;76.73;;
16387;SDS011;8303;53.446;9.988;2023-05-07T05:33:41;77.70;;;72.93;;
16387;SDS011;8303;53.446;9.988;2023-05-07T05:36:09;199.13;;;187.60;;
16387;SDS011;8303;53.446;9.988;2023-05-07T05:38:38;95.50;;;89.83;;
16387;SDS011;8303;53.446;9.988;2023-05-07T05:41:05;89.03;;;83.53;;
16387;SDS011;8303;53.446;9.988;2023-05-07T05:43:33;87.70;;;82.30;;
16387;SDS011;8303;53.446;9.988;2023-05-07T05:46:00;129.57;;;121.97;;
16387;SDS011;8303;53.446;9.988;2023-05-07T05:48:29;96.37;;;90.33;;
16387;SDS011;8303;53.446;9.988;2023-05-07T05:50:56;104.03;;;97.40;;
16387;SDS011;8303;53.446;9.988;2023-05-07T05:53:24;81.43;;;76.37;;
16387;SDS011;8303;53.446;9.988;2023-05-07T05:55:52;91.53;;;85.83;;
16387;SDS011;8303;53.446;9.988;2023-05-07T05:58:20;84.33;;;79.13;;
16387;SDS011;8303;53.446;9.988;2023-05-07T06:00:47;91.73;;;86.23;;
16387;SDS011;8303;53.446;9.988;2023-05-07T06:03:17;104.73;;;98.27;;
16387;SDS011;8303;53.446;9.988;2023-05-07T06:05:44;90.57;;;85.13;;
16387;SDS011;8303;53.446;9.988;2023-05-07T06:08:12;85.70;;;80.20;;
16387;SDS011;8303;53.446;9.988;2023-05-07T06:10:40;96.87;;;90.80;;
16387;SDS011;8303;53.446;9.988;2023-05-07T06:13:08;90.23;;;84.77;;
16387;SDS011;8303;53.446;9.988;2023-05-07T06:15:36;95.00;;;89.37;;
16387;SDS011;8303;53.446;9.988;2023-05-07T06:18:03;92.97;;;86.77;;
16387;SDS011;8303;53.446;9.988;2023-05-07T06:20:30;92.27;;;86.67;;
16387;SDS011;8303;53.446;9.988;2023-05-07T06:22:58;94.30;;;88.67;;
16387;SDS011;8303;53.446;9.988;2023-05-07T06:25:25;84.80;;;79.63;;
16387;SDS011;8303;53.446;9.988;2023-05-07T06:27:52;88.33;;;82.97;;
16387;SDS011;8303;53.446;9.988;2023-05-07T06:30:21;90.23;;;84.63;;
16387;SDS011;8303;53.446;9.988;2023-05-07T06:32:49;95.40;;;89.50;;
16387;SDS011;8303;53.446;9.988;2023-05-07T06:35:17;91.87;;;86.27;;
16387;SDS011;8303;53.446;9.988;2023-05-07T06:37:44;99.83;;;93.90;;
16387;SDS011;8303;53.446;9.988;2023-05-07T06:40:13;98.57;;;92.77;;
16387;SDS011;8303;53.446;9.988;2023-05-07T06:42:40;97.53;;;91.93;;
16387;SDS011;8303;53.446;9.988;2023-05-07T06:45:08;115.77;;;109.33;;
16387;SDS011;8303;53.446;9.988;2023-05-07T06:47:37;85.77;;;80.73;;
16387;SDS011;8303;53.446;9.988;2023-05-07T06:50:05;86.27;;;81.03;;
16387;SDS011;8303;53.446;9.988;2023-05-07T06:52:34;175.97;;;165.63;;
16387;SDS011;8303;53.446;9.988;2023-05-07T06:55:02;104.20;;;98.33;;
16387;SDS011;8303;53.446;9.988;2023-05-07T06:57:30;86.77;;;81.73;;
16387;SDS011;8303;53.446;9.988;2023-05-07T06:59:57;115.07;;;108.40;;
16387;SDS011;8303;53.446;9.988;2023-05-07T07:02:24;125.50;;;118.47;;
16387;SDS011;8303;53.446;9.988;2023-05-07T07:04:53;99.30;;;93.47;;
16387;SDS011;8303;53.446;9.988;2023-05-07T07:07:20;99.63;;;93.83;;
16387;SDS011;8303;53.446;9.988;2023-05-07T07:09:48;102.23;;;96.40;;
16387;SDS011;8303;53.446;9.988;2023-05-07T07:12:16;104.07;;;98.17;;
16387;SDS011;8303;53.446;9.988;2023-05-07T07:14:44;102.63;;;96.70;;
16387;SDS011;8303;53.446;9.988;2023-05-07T07:17:11;106.40;;;100.27;;
16387;SDS011;8303;53.446;9.988;2023-05-07T07:19:38;115.13;;;108.73;;
16387;SDS011;8303;53.446;9.988;2023-05-07T07:22:07;103.37;;;97.33;;
16387;SDS011;8303;53.446;9.988;2023-05-07T07:24:35;100.33;;;94.63;;
16387;SDS011;8303;53.446;9.988;2023-05-07T07:27:02;132.37;;;125.03;;
16387;SDS011;8303;53.446;9.988;2023-05-07T07:29:30;100.33;;;94.73;;
16387;SDS011;8303;53.446;9.988;2023-05-07T07:31:57;133.87;;;126.50;;
16387;SDS011;8303;53.446;9.988;2023-05-07T07:34:24;102.80;;;97.03;;
16387;SDS011;8303;53.446;9.988;2023-05-07T07:36:52;102.53;;;96.83;;
16387;SDS011;8303;53.446;9.988;2023-05-07T07:39:22;164.93;;;155.90;;
16387;SDS011;8303;53.446;9.988;2023-05-07T07:41:49;108.17;;;101.87;;
16387;SDS011;8303;53.446;9.988;2023-05-07T07:44:17;109.83;;;103.83;;
16387;SDS011;8303;53.446;9.988;2023-05-07T07:46:44;107.93;;;101.83;;
16387;SDS011;8303;53.446;9.988;2023-05-07T07:49:12;126.10;;;119.23;;
16387;SDS011;8303;53.446;9.988;2023-05-07T07:51:40;109.07;;;103.27;;
16387;SDS011;8303;53.446;9.988;2023-05-07T07:54:08;114.40;;;108.20;;
16387;SDS011;8303;53.446;9.988;2023-05-07T07:56:37;112.90;;;106.80;;
16387;SDS011;8303;53.446;9.988;2023-05-07T07:59:05;112.20;;;105.90;;
16387;SDS011;8303;53.446;9.988;2023-05-07T08:01:32;134.50;;;127.43;;
16387;SDS011;8303;53.446;9.988;2023-05-07T08:03:59;117.03;;;110.77;;
16387;SDS011;8303;53.446;9.988;2023-05-07T08:06:28;186.20;;;175.97;;
16387;SDS011;8303;53.446;9.988;2023-05-07T08:08:55;124.63;;;117.33;;
16387;SDS011;8303;53.446;9.988;2023-05-07T08:11:22;132.40;;;125.50;;
16387;SDS011;8303;53.446;9.988;2023-05-07T08:13:51;107.00;;;100.87;;
16387;SDS011;8303;53.446;9.988;2023-05-07T08:16:19;115.07;;;108.80;;
16387;SDS011;8303;53.446;9.988;2023-05-07T08:18:46;114.97;;;108.87;;
16387;SDS011;8303;53.446;9.988;2023-05-07T08:21:13;92.90;;;87.70;;
16387;SDS011;8303;53.446;9.988;2023-05-07T08:23:41;114.23;;;108.23;;
16387;SDS011;8303;53.446;9.988;2023-05-07T08:26:08;104.17;;;98.50;;
16387;SDS011;8303;53.446;9.988;2023-05-07T08:28:36;129.47;;;122.53;;
16387;SDS011;8303;53.446;9.988;2023-05-07T08:31:04;109.47;;;103.27;;
16387;SDS011;8303;53.446;9.988;2023-05-07T08:33:32;218.63;;;205.20;;
16387;SDS011;8303;53.446;9.988;2023-05-07T08:35:59;144.97;;;137.17;;
16387;SDS011;8303;53.446;9.988;2023-05-07T08:38:26;144.23;;;136.60;;
16387;SDS011;8303;53.446;9.988;2023-05-07T08:40:54;125.77;;;119.27;;
16387;SDS011;8303;53.446;9.988;2023-05-07T08:43:21;112.03;;;105.80;;
16387;SDS011;8303;53.446;9.988;2023-05-07T08:45:53;123.13;;;116.63;;
16387;SDS011;8303;53.446;9.988;2023-05-07T08:48:24;129.07;;;122.30;;
16387;SDS011;8303;53.446;9.988;2023-05-07T08:50:53;157.13;;;148.87;;
16387;SDS011;8303;53.446;9.988;2023-05-07T08:53:21;160.90;;;152.50;;
16387;SDS011;8303;53.446;9.988;2023-05-07T08:55:48;212.63;;;201.27;;
16387;SDS011;8303;53.446;9.988;2023-05-07T08:58:16;180.33;;;170.83;;
16387;SDS011;8303;53.446;9.988;2023-05-07T09:00:43;148.00;;;140.27;;
16387;SDS011;8303;53.446;9.988;2023-05-07T09:03:11;165.33;;;156.73;;
16387;SDS011;8303;53.446;9.988;2023-05-07T09:05:40;166.53;;;157.87;;
16387;SDS011;8303;53.446;9.988;2023-05-07T09:08:09;151.57;;;143.43;;
16387;SDS011;8303;53.446;9.988;2023-05-07T09:10:36;178.63;;;169.13;;
16387;SDS011;8303;53.446;9.988;2023-05-07T09:13:04;141.03;;;133.80;;
16387;SDS011;8303;53.446;9.988;2023-05-07T09:15:31;173.07;;;164.13;;
16387;SDS011;8303;53.446;9.988;2023-05-07T09:17:59;144.87;;;137.37;;
16387;SDS011;8303;53.446;9.988;2023-05-07T09:20:29;148.63;;;140.87;;
16387;SDS011;8303;53.446;9.988;2023-05-07T09:22:59;132.77;;;125.70;;
16387;SDS011;8303;53.446;9.988;2023-05-07T09:25:29;131.23;;;124.43;;
16387;SDS011;8303;53.446;9.988;2023-05-07T09:27:57;144.73;;;137.00;;
16387;SDS011;8303;53.446;9.988;2023-05-07T09:30:27;145.87;;;138.37;;
16387;SDS011;8303;53.446;9.988;2023-05-07T09:32:56;141.87;;;134.60;;
16387;SDS011;8303;53.446;9.988;2023-05-07T09:35:24;148.63;;;140.70;;
16387;SDS011;8303;53.446;9.988;2023-05-07T09:37:52;150.07;;;142.37;;
16387;SDS011;8303;53.446;9.988;2023-05-07T09:40:22;169.80;;;160.97;;
16387;SDS011;8303;53.446;9.988;2023-05-07T09:42:50;169.43;;;160.73;;
16387;SDS011;8303;53.446;9.988;2023-05-07T09:45:21;156.33;;;148.30;;
16387;SDS011;8303;53.446;9.988;2023-05-07T09:47:49;190.60;;;180.47;;
16387;SDS011;8303;53.446;9.988;2023-05-07T09:50:22;212.40;;;200.70;;
16387;SDS011;8303;53.446;9.988;2023-05-07T09:52:54;150.67;;;142.70;;
16387;SDS011;8303;53.446;9.988;2023-05-07T09:55:24;165.33;;;156.80;;
16387;SDS011;8303;53.446;9.988;2023-05-07T09:57:52;149.97;;;142.07;;
16387;SDS011;8303;53.446;9.988;2023-05-07T10:00:21;157.43;;;149.33;;
16387;SDS011;8303;53.446;9.988;2023-05-07T10:02:49;176.07;;;166.93;;
16387;SDS011;8303;53.446;9.988;2023-05-07T10:05:18;175.83;;;166.47;;
16387;SDS011;8303;53.446;9.988;2023-05-07T10:07:46;252.93;;;239.67;;
16387;SDS011;8303;53.446;9.988;2023-05-07T10:10:13;174.10;;;164.97;;
16387;SDS011;8303;53.446;9.988;2023-05-07T10:12:43;167.37;;;158.77;;
16387;SDS011;8303;53.446;9.988;2023-05-07T10:15:11;162.43;;;153.83;;
16387;SDS011;8303;53.446;9.988;2023-05-07T10:17:40;179.00;;;169.53;;
16387;SDS011;8303;53.446;9.988;2023-05-07T10:20:07;176.47;;;167.00;;
16387;SDS011;8303;53.446;9.988;2023-05-07T10:22:37;176.47;;;167.07;;
16387;SDS011;8303;53.446;9.988;2023-05-07T10:25:09;161.20;;;152.73;;
16387;SDS011;8303;53.446;9.988;2023-05-07T10:27:44;203.57;;;192.83;;
16387;SDS011;8303;53.446;9.988;2023-05-07T10:30:20;182.27;;;172.87;;
16387;SDS011;8303;53.446;9.988;2023-05-07T10:33:01;159.63;;;151.50;;
16387;SDS011;8303;53.446;9.988;2023-05-07T10:35:37;155.43;;;147.43;;
16387;SDS011;8303;53.446;9.988;2023-05-07T10:38:10;184.07;;;174.70;;
16387;SDS011;8303;53.446;9.988;2023-05-07T10:40:37;238.13;;;226.00;;
16387;SDS011;8303;53.446;9.988;2023-05-07T10:43:07;175.10;;;165.83;;
16387;SDS011;8303;53.446;9.988;2023-05-07T10:45:35;227.00;;;214.97;;
16387;SDS011;8303;53.446;9.988;2023-05-07T10:48:06;159.77;;;151.30;;
16387;SDS011;8303;53.446;9.988;2023-05-07T10:50:37;170.57;;;161.73;;
16387;SDS011;8303;53.446;9.988;2023-05-07T10:53:21;174.73;;;165.53;;
16387;SDS011;8303;53.446;9.988;2023-05-07T10:58:55;149.83;;;141.90;;
16387;SDS011;8303;53.446;9.988;2023-05-07T11:01:49;197.60;;;187.40;;
16387;SDS011;8303;53.446;9.988;2023-05-07T11:04:17;181.70;;;172.10;;
16387;SDS011;8303;53.446;9.988;2023-05-07T11:09:55;145.93;;;138.17;;
16387;SDS011;8303;53.446;9.988;2023-05-07T11:18:01;177.90;;;168.73;;
16387;SDS011;8303;53.446;9.988;2023-05-07T11:20:45;171.60;;;162.67;;
16387;SDS011;8303;53.446;9.988;2023-05-07T11:26:15;207.90;;;197.40;;
16387;SDS011;8303;53.446;9.988;2023-05-07T11:28:43;196.07;;;185.97;;
16387;SDS011;8303;53.446;9.988;2023-05-07T11:31:11;169.80;;;161.17;;
16387;SDS011;8303;53.446;9.988;2023-05-07T11:33:39;172.60;;;163.77;;
16387;SDS011;8303;53.446;9.988;2023-05-07T11:36:07;159.90;;;151.63;;
16387;SDS011;8303;53.446;9.988;2023-05-07T11:38:35;186.60;;;177.10;;
16387;SDS011;8303;53.446;9.988;2023-05-07T11:41:03;184.70;;;174.90;;
16387;SDS011;8303;53.446;9.988;2023-05-07T11:43:31;221.73;;;210.37;;
16387;SDS011;8303;53.446;9.988;2023-05-07T11:46:04;199.83;;;189.63;;
16387;SDS011;8303;53.446;9.988;2023-05-07T11:48:36;194.13;;;184.10;;
16387;SDS011;8303;53.446;9.988;2023-05-07T11:51:03;198.00;;;188.30;;
16387;SDS011;8303;53.446;9.988;2023-05-07T11:53:36;202.50;;;192.30;;
16387;SDS011;8303;53.446;9.988;2023-05-07T11:56:08;192.47;;;182.60;;
16387;SDS011;8303;53.446;9.988;2023-05-07T11:58:36;191.73;;;181.97;;
16387;SDS011;8303;53.446;9.988;2023-05-07T12:01:04;191.43;;;181.77;;
16387;SDS011;8303;53.446;9.988;2023-05-07T12:03:35;194.27;;;184.57;;
16387;SDS011;8303;53.446;9.988;2023-05-07T12:06:05;181.87;;;172.40;;
16387;SDS011;8303;53.446;9.988;2023-05-07T12:08:32;192.70;;;182.70;;
16387;SDS011;8303;53.446;9.988;2023-05-07T12:11:02;200.77;;;190.63;;
16387;SDS011;8303;53.446;9.988;2023-05-07T12:13:29;149.40;;;141.67;;
16387;SDS011;8303;53.446;9.988;2023-05-07T12:15:56;169.47;;;160.73;;
16387;SDS011;8303;53.446;9.988;2023-05-07T12:18:23;163.93;;;155.50;;
16387;SDS011;8303;53.446;9.988;2023-05-07T12:20:52;218.23;;;207.13;;
16387;SDS011;8303;53.446;9.988;2023-05-07T12:23:19;214.57;;;203.57;;
16387;SDS011;8303;53.446;9.988;2023-05-07T12:25:48;211.03;;;200.33;;
16387;SDS011;8303;53.446;9.988;2023-05-07T12:28:15;175.07;;;166.07;;
16387;SDS011;8303;53.446;9.988;2023-05-07T12:30:44;228.93;;;217.23;;
16387;SDS011;8303;53.446;9.988;2023-05-07T12:33:13;254.23;;;241.53;;
16387;SDS011;8303;53.446;9.988;2023-05-07T12:35:43;285.90;;;271.38;;
16387;SDS011;8303;53.446;9.988;2023-05-07T12:38:12;264.45;;;251.27;;
16387;SDS011;8303;53.446;9.988;2023-05-07T12:40:40;311.27;;;295.65;;
16387;SDS011;8303;53.446;9.988;2023-05-07T12:43:14;326.27;;;309.25;;
16387;SDS011;8303;53.446;9.988;2023-05-07T12:45:42;280.88;;;266.73;;
16387;SDS011;8303;53.446;9.988;2023-05-07T12:48:10;260.10;;;247.00;;
16387;SDS011;8303;53.446;9.988;2023-05-07T12:50:37;285.48;;;271.05;;
16387;SDS011;8303;53.446;9.988;2023-05-07T12:53:04;283.25;;;269.17;;
16387;SDS011;8303;53.446;9.988;2023-05-07T12:55:34;262.83;;;249.63;;
16387;SDS011;8303;53.446;9.988;2023-05-07T12:58:08;252.63;;;239.88;;
16387;SDS011;8303;53.446;9.988;2023-05-07T13:00:41;327.40;;;310.70;;
16387;SDS011;8303;53.446;9.988;2023-05-07T13:03:08;294.08;;;278.88;;
16387;SDS011;8303;53.446;9.988;2023-05-07T13:05:35;276.30;;;262.50;;
16387;SDS011;8303;53.446;9.988;2023-05-07T13:08:02;352.25;;;333.73;;
16387;SDS011;8303;53.446;9.988;2023-05-07T13:10:30;290.58;;;276.00;;
16387;SDS011;8303;53.446;9.988;2023-05-07T13:12:59;254.02;;;241.43;;
16387;SDS011;8303;53.446;9.988;2023-05-07T13:15:26;263.65;;;250.50;;
16387;SDS011;8303;53.446;9.988;2023-05-07T13:17:53;235.15;;;223.50;;
16387;SDS011;8303;53.446;9.988;2023-05-07T13:20:20;277.85;;;263.85;;
16387;SDS011;8303;53.446;9.988;2023-05-07T13:22:47;283.13;;;268.70;;
16387;SDS011;8303;53.446;9.988;2023-05-07T13:25:14;250.02;;;237.60;;
16387;SDS011;8303;53.446;9.988;2023-05-07T13:27:40;214.25;;;203.43;;
16387;SDS011;8303;53.446;9.988;2023-05-07T13:30:10;224.52;;;213.30;;
16387;SDS011;8303;53.446;9.988;2023-05-07T13:32:37;221.02;;;209.77;;
16387;SDS011;8303;53.446;9.988;2023-05-07T13:35:04;173.27;;;164.45;;
16387;SDS011;8303;53.446;9.988;2023-05-07T13:37:32;134.15;;;127.20;;
16387;SDS011;8303;53.446;9.988;2023-05-07T13:40:00;110.35;;;104.32;;
16387;SDS011;8303;53.446;9.988;2023-05-07T13:42:28;118.38;;;112.28;;
16387;SDS011;8303;53.446;9.988;2023-05-07T13:44:55;67.63;;;63.95;;
16387;SDS011;8303;53.446;9.988;2023-05-07T13:47:24;51.08;;;48.10;;
16387;SDS011;8303;53.446;9.988;2023-05-07T13:49:51;24.52;;;22.95;;
16387;SDS011;8303;53.446;9.988;2023-05-07T13:52:18;23.40;;;22.10;;
16387;SDS011;8303;53.446;9.988;2023-05-07T13:54:45;33.25;;;31.45;;
16387;SDS011;8303;53.446;9.988;2023-05-07T13:57:12;65.63;;;62.10;;
16387;SDS011;8303;53.446;9.988;2023-05-07T13:59:40;78.18;;;74.05;;
16387;SDS011;8303;53.446;9.988;2023-05-07T14:02:07;59.97;;;56.78;;
16387;SDS011;8303;53.446;9.988;2023-05-07T14:04:36;46.15;;;43.55;;
16387;SDS011;8303;53.446;9.988;2023-05-07T14:07:03;28.60;;;27.00;;
16387;SDS011;8303;53.446;9.988;2023-05-07T14:09:31;23.10;;;21.80;;
16387;SDS011;8303;53.446;9.988;2023-05-07T14:11:58;26.20;;;24.70;;
16387;SDS011;8303;53.446;9.988;2023-05-07T14:14:25;34.47;;;32.58;;
16387;SDS011;8303;53.446;9.988;2023-05-07T14:16:52;36.45;;;34.45;;
16387;SDS011;8303;53.446;9.988;2023-05-07T14:19:19;60.85;;;57.58;;
16387;SDS011;8303;53.446;9.988;2023-05-07T14:21:49;73.35;;;69.50;;
16387;SDS011;8303;53.446;9.988;2023-05-07T14:24:16;69.03;;;65.13;;
16387;SDS011;8303;53.446;9.988;2023-05-07T14:26:43;80.93;;;76.65;;
16387;SDS011;8303;53.446;9.988;2023-05-07T14:29:10;77.45;;;73.25;;
16387;SDS011;8303;53.446;9.988;2023-05-07T14:31:37;31.75;;;29.95;;
16387;SDS011;8303;53.446;9.988;2023-05-07T14:34:04;21.13;;;19.92;;
16387;SDS011;8303;53.446;9.988;2023-05-07T14:36:30;20.05;;;18.95;;
16387;SDS011;8303;53.446;9.988;2023-05-07T14:38:59;31.65;;;29.85;;
16387;SDS011;8303;53.446;9.988;2023-05-07T14:41:26;36.60;;;34.60;;
16387;SDS011;8303;53.446;9.988;2023-05-07T14:43:53;24.00;;;22.73;;
16387;SDS011;8303;53.446;9.988;2023-05-07T14:46:20;22.75;;;21.42;;
16387;SDS011;8303;53.446;9.988;2023-05-07T14:48:47;32.33;;;30.48;;
16387;SDS011;8303;53.446;9.988;2023-05-07T14:51:14;39.47;;;37.15;;
16387;SDS011;8303;53.446;9.988;2023-05-07T14:53:41;45.45;;;42.95;;
16387;SDS011;8303;53.446;9.988;2023-05-07T14:56:10;40.10;;;37.85;;
16387;SDS011;8303;53.446;9.988;2023-05-07T14:58:37;46.13;;;43.55;;
16387;SDS011;8303;53.446;9.988;2023-05-07T15:01:03;56.28;;;53.20;;
16387;SDS011;8303;53.446;9.988;2023-05-07T15:03:30;88.78;;;83.15;;
16387;SDS011;8303;53.446;9.988;2023-05-07T15:05:58;118.00;;;112.00;;
16387;SDS011;8303;53.446;9.988;2023-05-07T15:08:25;111.13;;;105.57;;
16387;SDS011;8303;53.446;9.988;2023-05-07T15:10:52;111.28;;;105.63;;
16387;SDS011;8303;53.446;9.988;2023-05-07T15:13:21;113.65;;;107.78;;
16387;SDS011;8303;53.446;9.988;2023-05-07T15:15:48;108.10;;;102.47;;
16387;SDS011;8303;53.446;9.988;2023-05-07T15:18:15;115.18;;;109.38;;
16387;SDS011;8303;53.446;9.988;2023-05-07T15:20:42;137.77;;;130.60;;
16387;SDS011;8303;53.446;9.988;2023-05-07T15:23:10;124.82;;;118.57;;
16387;SDS011;8303;53.446;9.988;2023-05-07T15:25:37;147.88;;;140.40;;
16387;SDS011;8303;53.446;9.988;2023-05-07T15:28:04;118.25;;;112.18;;
16387;SDS011;8303;53.446;9.988;2023-05-07T15:30:32;134.07;;;127.18;;
16387;SDS011;8303;53.446;9.988;2023-05-07T15:33:00;123.22;;;116.97;;
16387;SDS011;8303;53.446;9.988;2023-05-07T15:35:28;110.95;;;105.28;;
16387;SDS011;8303;53.446;9.988;2023-05-07T15:37:55;136.98;;;130.00;;
16387;SDS011;8303;53.446;9.988;2023-05-07T15:40:22;126.13;;;119.63;;
16387;SDS011;8303;53.446;9.988;2023-05-07T15:42:49;140.18;;;133.13;;
16387;SDS011;8303;53.446;9.988;2023-05-07T15:45:20;118.30;;;112.25;;
16387;SDS011;8303;53.446;9.988;2023-05-07T15:47:48;119.75;;;113.75;;
16387;SDS011;8303;53.446;9.988;2023-05-07T15:50:15;113.53;;;107.78;;
16387;SDS011;8303;53.446;9.988;2023-05-07T15:52:42;133.00;;;126.35;;
16387;SDS011;8303;53.446;9.988;2023-05-07T15:55:11;126.43;;;119.97;;
16387;SDS011;8303;53.446;9.988;2023-05-07T15:57:38;110.47;;;104.93;;
16387;SDS011;8303;53.446;9.988;2023-05-07T16:00:05;83.43;;;78.97;;
16387;SDS011;8303;53.446;9.988;2023-05-07T16:02:35;95.45;;;90.57;;
16387;SDS011;8303;53.446;9.988;2023-05-07T16:05:04;63.03;;;59.53;;
16387;SDS011;8303;53.446;9.988;2023-05-07T16:07:33;74.60;;;70.70;;
16387;SDS011;8303;53.446;9.988;2023-05-07T16:10:00;61.20;;;57.85;;
16387;SDS011;8303;53.446;9.988;2023-05-07T16:12:27;26.48;;;25.05;;
16387;SDS011;8303;53.446;9.988;2023-05-07T16:14:54;28.63;;;27.02;;
16387;SDS011;8303;53.446;9.988;2023-05-07T16:17:21;22.80;;;21.45;;
16387;SDS011;8303;53.446;9.988;2023-05-07T16:19:49;64.35;;;60.92;;
16387;SDS011;8303;53.446;9.988;2023-05-07T16:22:17;69.18;;;65.28;;
16387;SDS011;8303;53.446;9.988;2023-05-07T16:24:44;64.43;;;60.80;;
16387;SDS011;8303;53.446;9.988;2023-05-07T16:27:11;78.20;;;74.03;;
16387;SDS011;8303;53.446;9.988;2023-05-07T16:29:38;83.72;;;79.38;;
16387;SDS011;8303;53.446;9.988;2023-05-07T16:32:05;64.75;;;61.28;;
16387;SDS011;8303;53.446;9.988;2023-05-07T16:34:32;23.67;;;22.38;;
16387;SDS011;8303;53.446;9.988;2023-05-07T16:36:59;21.73;;;20.33;;
16387;SDS011;8303;53.446;9.988;2023-05-07T16:39:27;21.48;;;20.25;;
16387;SDS011;8303;53.446;9.988;2023-05-07T16:41:54;22.00;;;20.77;;
16387;SDS011;8303;53.446;9.988;2023-05-07T16:44:21;21.30;;;20.00;;
16387;SDS011;8303;53.446;9.988;2023-05-07T16:46:48;22.25;;;21.02;;
16387;SDS011;8303;53.446;9.988;2023-05-07T16:49:17;34.72;;;32.58;;
16387;SDS011;8303;53.446;9.988;2023-05-07T16:51:44;51.78;;;48.78;;
16387;SDS011;8303;53.446;9.988;2023-05-07T16:54:11;63.00;;;59.50;;
16387;SDS011;8303;53.446;9.988;2023-05-07T16:56:39;71.50;;;67.75;;
16387;SDS011;8303;53.446;9.988;2023-05-07T16:59:08;89.47;;;84.88;;
16387;SDS011;8303;53.446;9.988;2023-05-07T17:01:34;131.25;;;124.47;;
16387;SDS011;8303;53.446;9.988;2023-05-07T17:04:01;151.95;;;144.30;;
16387;SDS011;8303;53.446;9.988;2023-05-07T17:06:28;132.00;;;125.25;;
16387;SDS011;8303;53.446;9.988;2023-05-07T17:09:02;89.57;;;84.95;;
16387;SDS011;8303;53.446;9.988;2023-05-07T17:11:28;96.90;;;91.95;;
16387;SDS011;8303;53.446;9.988;2023-05-07T17:13:59;105.82;;;100.47;;
16387;SDS011;8303;53.446;9.988;2023-05-07T17:16:26;95.07;;;90.15;;
16387;SDS011;8303;53.446;9.988;2023-05-07T17:18:53;66.00;;;62.53;;
16387;SDS011;8303;53.446;9.988;2023-05-07T17:21:19;86.88;;;82.40;;
16387;SDS011;8303;53.446;9.988;2023-05-07T17:23:46;44.35;;;41.75;;
16387;SDS011;8303;53.446;9.988;2023-05-07T17:26:13;26.60;;;25.02;;
16387;SDS011;8303;53.446;9.988;2023-05-07T17:28:41;48.75;;;46.08;;
16387;SDS011;8303;53.446;9.988;2023-05-07T17:31:09;71.32;;;67.47;;
16387;SDS011;8303;53.446;9.988;2023-05-07T17:33:36;75.85;;;71.80;;
16387;SDS011;8303;53.446;9.988;2023-05-07T17:36:03;89.72;;;85.13;;
16387;SDS011;8303;53.446;9.988;2023-05-07T17:38:32;94.50;;;89.70;;
16387;SDS011;8303;53.446;9.988;2023-05-07T17:40:59;72.80;;;69.00;;
16387;SDS011;8303;53.446;9.988;2023-05-07T17:43:26;135.30;;;123.63;;
16387;SDS011;8303;53.446;9.988;2023-05-07T17:45:53;76.05;;;72.03;;
16387;SDS011;8303;53.446;9.988;2023-05-07T17:48:22;23.90;;;22.40;;
16387;SDS011;8303;53.446;9.988;2023-05-07T17:50:49;45.67;;;43.13;;
16387;SDS011;8303;53.446;9.988;2023-05-07T17:53:16;114.60;;;108.65;;
16387;SDS011;8303;53.446;9.988;2023-05-07T17:55:43;174.68;;;164.63;;
16387;SDS011;8303;53.446;9.988;2023-05-07T17:58:11;357.80;;;338.95;;
16387;SDS011;8303;53.446;9.988;2023-05-07T18:00:38;252.20;;;239.43;;
16387;SDS011;8303;53.446;9.988;2023-05-07T18:03:05;180.60;;;171.13;;
16387;SDS011;8303;53.446;9.988;2023-05-07T18:05:35;249.27;;;236.80;;
16387;SDS011;8303;53.446;9.988;2023-05-07T18:08:03;304.15;;;288.35;;
16387;SDS011;8303;53.446;9.988;2023-05-07T18:10:31;263.15;;;250.13;;
16387;SDS011;8303;53.446;9.988;2023-05-07T18:12:58;146.30;;;138.93;;
16387;SDS011;8303;53.446;9.988;2023-05-07T18:15:25;201.20;;;191.15;;
16387;SDS011;8303;53.446;9.988;2023-05-07T18:17:53;276.15;;;262.38;;
16387;SDS011;8303;53.446;9.988;2023-05-07T18:20:20;337.90;;;320.40;;
16387;SDS011;8303;53.446;9.988;2023-05-07T18:22:48;310.92;;;295.65;;
16387;SDS011;8303;53.446;9.988;2023-05-07T18:25:15;295.13;;;280.02;;
16387;SDS011;8303;53.446;9.988;2023-05-07T18:27:42;335.70;;;318.70;;
16387;SDS011;8303;53.446;9.988;2023-05-07T18:30:09;322.80;;;306.48;;
16387;SDS011;8303;53.446;9.988;2023-05-07T18:32:37;314.73;;;299.13;;
16387;SDS011;8303;53.446;9.988;2023-05-07T18:35:04;313.07;;;297.30;;
16387;SDS011;8303;53.446;9.988;2023-05-07T18:37:32;306.47;;;291.40;;
16387;SDS011;8303;53.446;9.988;2023-05-07T18:40:00;306.27;;;291.07;;
16387;SDS011;8303;53.446;9.988;2023-05-07T18:42:29;296.77;;;281.93;;
16387;SDS011;8303;53.446;9.988;2023-05-07T18:44:56;314.50;;;299.00;;
16387;SDS011;8303;53.446;9.988;2023-05-07T18:47:23;310.13;;;294.70;;
16387;SDS011;8303;53.446;9.988;2023-05-07T18:49:50;296.70;;;281.87;;
16387;SDS011;8303;53.446;9.988;2023-05-07T18:52:18;307.57;;;292.53;;
16387;SDS011;8303;53.446;9.988;2023-05-07T18:54:46;302.83;;;287.90;;
16387;SDS011;8303;53.446;9.988;2023-05-07T18:57:14;320.97;;;304.97;;
16387;SDS011;8303;53.446;9.988;2023-05-07T18:59:41;289.40;;;275.07;;
16387;SDS011;8303;53.446;9.988;2023-05-07T19:02:08;291.13;;;276.97;;
16387;SDS011;8303;53.446;9.988;2023-05-07T19:04:38;298.97;;;284.23;;
16387;SDS011;8303;53.446;9.988;2023-05-07T19:07:05;300.57;;;285.70;;
16387;SDS011;8303;53.446;9.988;2023-05-07T19:09:32;286.30;;;272.33;;
16387;SDS011;8303;53.446;9.988;2023-05-07T19:11:59;288.30;;;274.10;;
16387;SDS011;8303;53.446;9.988;2023-05-07T19:14:27;309.37;;;294.10;;
16387;SDS011;8303;53.446;9.988;2023-05-07T19:16:54;304.30;;;289.33;;
16387;SDS011;8303;53.446;9.988;2023-05-07T19:19:21;308.03;;;292.90;;
16387;SDS011;8303;53.446;9.988;2023-05-07T19:21:48;305.37;;;290.27;;
16387;SDS011;8303;53.446;9.988;2023-05-07T19:24:15;308.83;;;293.60;;